Penelope, Texas
Current Conditions -  °F | °C
As of 3:55 PM on Friday 28 Nov 2014 (Local Time) from KINJ Reporting Station
Clear Clear  
Wind Chill: 71°   Ceiling: Unl
Heat Index: 71°   Visibility: 10mi
Dew Point: 49°   Wind: 21mph
Humidity: 46%   Direction: 180°S
Pressure: 30.07"   Gusts: NA
Location:  31.86°N, 96.93°W
Report Text: KINJ 282155Z AUTO 18018KT 10SM CLR 22/09 A3007 RMK AO2 T02150093
Loading
Personal Weather Stations






























Interactive Weather Map New forecast layout! Learn more

10-Day Weather Forecast

Advertisements
Track Severe Weather on mobile